Time;durP1;ratioP1;P1;durP2;ratioP2;P2;SDS_P1;SDS_P2;PMS_P1;PMS_P2;Temp;Humidity;BMP_temperature;BMP_pressure;BME280_temperature;BME280_humidity;BME280_pressure;Samples;Min_cycle;Max_cycle;Signal;HPM_P1;HPM_P2
2021/03/29 00:00:41;;;;;;;2.60;2.10;;;;;;;6.73;69.56;100216.42;1733359;80;21224;-38
2021/03/29 00:03:09;;;;;;;2.85;2.12;;;;;;;6.77;69.51;100214.14;1689338;80;21203;-38
2021/03/29 00:05:38;;;;;;;2.62;1.95;;;;;;;6.74;69.48;100211.25;1724557;80;21545;-38
2021/03/29 00:08:22;;;;;;;2.62;2.33;;;;;;;6.69;69.59;100212.19;1721048;82;21223;-38
2021/03/29 00:10:52;;;;;;;2.45;2.15;;;;;;;6.66;69.64;100216.06;1729373;80;21100;-38
2021/03/29 00:13:21;;;;;;;2.40;2.08;;;;;;;6.63;69.74;100212.66;1785223;77;21372;-38
2021/03/29 00:15:52;;;;;;;2.33;2.10;;;;;;;6.66;69.73;100212.03;1786173;78;28378;-38
2021/03/29 00:18:20;;;;;;;3.72;1.92;;;;;;;6.67;69.64;100212.27;1784299;77;21163;-38
2021/03/29 00:20:57;;;;;;;2.20;2.00;;;;;;;6.68;69.60;100212.52;1783646;78;21115;-38
2021/03/29 00:23:26;;;;;;;2.20;2.00;;;;;;;6.66;69.65;100218.77;1786438;77;21174;-38
2021/03/29 00:25:54;;;;;;;4.97;2.12;;;;;;;6.60;69.81;100218.66;1787107;77;21195;-38
2021/03/29 00:28:22;;;;;;;2.20;1.75;;;;;;;6.54;69.85;100221.48;1790529;77;21454;-38
2021/03/29 00:30:52;;;;;;;2.00;1.72;;;;;;;6.53;69.94;100225.28;1782754;77;21124;-38
2021/03/29 00:33:20;;;;;;;3.40;2.30;;;;;;;6.52;69.99;100226.41;1782815;77;21182;-38
2021/03/29 00:35:49;;;;;;;2.37;1.87;;;;;;;6.50;70.18;100227.27;1737564;78;21205;-38
2021/03/29 00:38:18;;;;;;;;;;;;;;;6.48;70.21;100224.10;1787582;77;22089;-38
2021/03/29 00:40:54;;;;;;;2.17;1.92;;;;;;;6.48;70.31;100230.03;1787279;77;20304;-38
2021/03/29 00:43:30;;;;;;;2.72;2.20;;;;;;;6.45;70.48;100231.44;1781060;77;21071;-38
2021/03/29 00:45:58;;;;;;;3.00;2.30;;;;;;;6.46;70.47;100230.34;1784969;77;22125;-38
2021/03/29 00:48:27;;;;;;;2.85;2.40;;;;;;;6.46;70.69;100237.07;1785294;77;21638;-38
2021/03/29 00:51:19;;;;;;;3.33;2.70;;;;;;;6.42;70.60;100233.41;1766164;78;21012;-38
2021/03/29 00:53:53;;;;;;;3.15;2.12;;;;;;;6.37;70.75;100234.89;1784886;77;21202;-38
2021/03/29 00:56:22;;;;;;;4.55;2.45;;;;;;;6.34;70.96;100226.06;1794768;78;21150;-38
2021/03/29 00:58:51;;;;;;;3.02;2.50;;;;;;;6.35;70.96;100227.66;1780729;78;21150;-39
2021/03/29 01:01:33;;;;;;;2.50;2.30;;;;;;;6.30;71.13;100227.80;1788823;77;21739;-38
2021/03/29 01:04:02;;;;;;;3.30;2.50;;;;;;;6.28;71.20;100234.06;1776220;78;21215;-38
2021/03/29 01:06:34;;;;;;;3.15;2.40;;;;;;;6.29;71.26;100236.20;1785325;78;21163;-38
2021/03/29 01:09:17;;;;;;;3.95;3.02;;;;;;;6.29;71.41;100240.25;1780698;78;21186;-39
2021/03/29 01:11:51;;;;;;;3.83;2.98;;;;;;;6.29;71.30;100241.05;1730360;81;20953;-38
2021/03/29 01:14:39;;;;;;;3.62;2.92;;;;;;;6.27;71.31;100237.85;1729377;81;21577;-38
2021/03/29 01:17:28;;;;;;;4.03;2.80;;;;;;;6.27;71.32;100241.89;1731863;81;21235;-38
2021/03/29 01:20:05;;;;;;;2.62;2.42;;;;;;;6.22;71.42;100242.02;1745193;79;21170;-38
2021/03/29 01:22:45;;;;;;;4.78;2.87;;;;;;;6.17;71.56;100240.00;1751667;79;21461;-38
2021/03/29 01:25:46;;;;;;;3.30;3.00;;;;;;;6.21;71.60;100245.02;1737207;79;21214;-38
2021/03/29 01:28:17;;;;;;;3.67;3.12;;;;;;;6.17;71.74;100246.73;1752932;79;21163;-38
2021/03/29 01:30:45;;;;;;;5.17;3.08;;;;;;;6.12;71.86;100246.31;1748695;79;21370;-38
2021/03/29 01:33:14;;;;;;;3.77;2.80;;;;;;;6.10;71.99;100245.81;1748650;79;21682;-38
2021/03/29 01:35:52;;;;;;;3.80;3.00;;;;;;;6.12;71.83;100254.39;1713691;82;21189;-38
2021/03/29 01:38:20;;;;;;;3.70;2.87;;;;;;;6.19;71.70;100251.27;1718595;81;21632;-38
2021/03/29 01:40:48;;;;;;;4.00;3.47;;;;;;;6.16;71.74;100256.70;1751884;79;21240;-38
2021/03/29 01:43:16;;;;;;;4.20;3.30;;;;;;;6.13;71.76;100262.72;1751410;79;23511;-38
2021/03/29 01:45:45;;;;;;;4.30;3.10;;;;;;;6.11;71.90;100260.87;1750911;79;21156;-38
2021/03/29 01:48:13;;;;;;;4.70;3.37;;;;;;;6.12;71.83;100262.47;1758834;78;21205;-38
2021/03/29 01:50:43;;;;;;;4.42;3.22;;;;;;;6.13;71.64;100260.03;1772084;78;21126;-38
2021/03/29 01:53:11;;;;;;;4.10;3.30;;;;;;;6.10;71.73;100263.31;1765875;78;21176;-38
2021/03/29 01:55:40;;;;;;;3.98;3.17;;;;;;;6.06;71.92;100261.00;1765578;78;21368;-38
2021/03/29 01:58:10;;;;;;;3.50;3.20;;;;;;;5.94;72.05;100253.50;1759420;79;21166;-38
2021/03/29 02:00:51;;;;;;;4.08;3.20;;;;;;;6.01;72.00;100260.58;1765728;79;21621;-38
2021/03/29 02:03:23;;;;;;;3.92;3.37;;;;;;;6.03;71.96;100272.39;1765953;78;22014;-38
2021/03/29 02:05:52;;;;;;;4.72;3.27;;;;;;;5.98;72.05;100264.44;1764567;78;21158;-38
2021/03/29 02:08:20;;;;;;;3.35;2.60;;;;;;;5.99;72.09;100264.14;1766346;78;21376;-38
2021/03/29 02:10:50;;;;;;;3.45;2.83;;;;;;;6.05;71.92;100270.20;1767361;78;21044;-38
2021/03/29 02:13:21;;;;;;;3.30;2.92;;;;;;;6.11;71.74;100269.75;1744551;78;21151;-38
2021/03/29 02:15:57;;;;;;;5.60;3.50;;;;;;;6.09;71.68;100267.94;1742848;79;21568;-38
2021/03/29 02:18:27;;;;;;;5.28;3.20;;;;;;;6.09;71.68;100269.83;1772200;78;21174;-38
2021/03/29 02:21:01;;;;;;;;;;;;;;;6.08;71.66;100266.88;1742889;79;22254;-39
2021/03/29 02:23:28;;;;;;;4.35;3.40;;;;;;;6.07;71.57;100272.02;1765750;79;20278;-38
2021/03/29 02:25:58;;;;;;;3.58;3.22;;;;;;;6.01;71.71;100274.58;1708296;82;21180;-38
2021/03/29 02:28:26;;;;;;;5.67;3.10;;;;;;;6.03;71.77;100280.47;1709097;82;21619;-38
2021/03/29 02:30:54;;;;;;;4.30;3.30;;;;;;;6.00;71.70;100276.48;1717200;81;21199;-38
2021/03/29 02:33:22;;;;;;;3.85;2.92;;;;;;;5.98;71.68;100277.90;1766723;79;23523;-38
2021/03/29 02:35:52;;;;;;;2.80;2.55;;;;;;;6.01;71.77;100285.34;1772295;78;22464;-38
2021/03/29 02:38:20;;;;;;;4.15;2.87;;;;;;;6.04;71.67;100282.06;1747061;80;21578;-38
2021/03/29 02:40:50;;;;;;;3.60;2.83;;;;;;;6.05;71.58;100289.05;1762315;78;21664;-38
2021/03/29 02:43:19;;;;;;;4.60;3.20;;;;;;;6.03;71.59;100292.58;1762259;78;21162;-38
2021/03/29 02:45:54;;;;;;;4.42;2.60;;;;;;;6.01;71.63;100289.38;1766480;78;22953;-38
2021/03/29 02:48:28;;;;;;;3.17;2.70;;;;;;;6.01;71.53;100294.22;1765338;78;21564;-38
2021/03/29 02:50:58;;;;;;;3.65;2.77;;;;;;;6.00;71.54;100293.20;1755540;79;21147;-38
2021/03/29 02:53:36;;;;;;;3.75;3.00;;;;;;;5.96;71.57;100297.58;1763263;79;21198;-38
2021/03/29 02:56:09;;;;;;;3.58;2.42;;;;;;;5.88;71.73;100299.66;1795249;77;21787;-38
2021/03/29 02:58:39;;;;;;;4.17;2.55;;;;;;;5.83;71.95;100287.64;1787555;77;21850;-38
2021/03/29 03:01:13;;;;;;;3.83;2.90;;;;;;;5.85;71.90;100288.14;1791759;77;21069;-38
2021/03/29 03:03:42;;;;;;;3.45;3.00;;;;;;;5.82;71.93;100286.84;1791238;77;21546;-38
2021/03/29 03:06:11;;;;;;;3.55;2.98;;;;;;;5.79;72.05;100296.09;1789916;77;22301;-38
2021/03/29 03:08:39;;;;;;;3.95;2.95;;;;;;;5.78;72.12;100299.88;1778999;79;21161;-38
2021/03/29 03:11:11;;;;;;;4.37;3.08;;;;;;;5.79;72.09;100303.61;1780474;78;22348;-38
2021/03/29 03:13:44;;;;;;;4.20;2.77;;;;;;;5.83;71.89;100306.48;1780625;79;21572;-38
2021/03/29 03:16:13;;;;;;;4.15;3.40;;;;;;;5.80;71.90;100309.24;1780943;77;21173;-38
2021/03/29 03:18:41;;;;;;;4.25;3.20;;;;;;;5.78;71.95;100314.13;1750836;79;21097;-38
2021/03/29 03:21:11;;;;;;;3.98;2.83;;;;;;;5.78;71.91;100315.47;1785699;77;22519;-38
2021/03/29 03:23:41;;;;;;;3.40;2.92;;;;;;;5.47;71.77;100268.27;1747377;80;21403;-38
2021/03/29 03:26:09;;;;;;;4.62;3.35;;;;;;;5.83;71.83;100318.59;1738241;80;21166;-38
2021/03/29 03:28:37;;;;;;;5.20;3.55;;;;;;;5.80;71.93;100324.59;1798971;77;21559;-38
2021/03/29 03:31:04;;;;;;;4.22;3.20;;;;;;;5.79;71.86;100325.69;1807210;77;21011;-38
2021/03/29 03:33:33;;;;;;;3.67;3.10;;;;;;;5.79;71.94;100323.79;1799412;77;21147;-38
2021/03/29 03:36:01;;;;;;;3.62;3.00;;;;;;;5.83;71.83;100323.97;1786990;79;21191;-38
2021/03/29 03:38:34;;;;;;;5.20;3.30;;;;;;;5.88;71.76;100327.92;1785427;77;20994;-38
2021/03/29 03:41:09;;;;;;;6.17;3.62;;;;;;;5.85;71.64;100321.78;1812864;77;21034;-38
2021/03/29 03:43:43;;;;;;;6.33;3.83;;;;;;;5.79;71.79;100325.69;1781239;79;21117;-38
2021/03/29 03:46:17;;;;;;;3.87;3.00;;;;;;;5.74;71.89;100317.17;1780805;79;21157;-38
2021/03/29 03:48:45;;;;;;;5.80;3.62;;;;;;;5.77;71.92;100325.98;1785624;79;21594;-38
2021/03/29 03:51:13;;;;;;;5.83;3.65;;;;;;;5.82;71.76;100323.72;1772086;79;21158;-38
2021/03/29 03:53:41;;;;;;;4.30;3.60;;;;;;;5.80;71.91;100325.39;1776160;79;21119;-38
2021/03/29 03:56:10;;;;;;;5.67;3.58;;;;;;;5.80;71.95;100322.70;1775056;79;21678;-38
2021/03/29 03:58:38;;;;;;;6.37;4.42;;;;;;;5.80;71.96;100325.39;1780063;79;21152;-38
2021/03/29 04:03:07;;;;;;;6.22;4.40;;;;;;;5.89;71.77;100332.21;1808470;78;22718;-38
2021/03/29 04:05:35;;;;;;;5.92;4.03;;;;;;;5.80;71.97;100334.01;1802471;78;21509;-38
2021/03/29 04:08:08;;;;;;;5.35;4.28;;;;;;;5.79;71.99;100333.20;1799242;78;22458;-37
2021/03/29 04:13:11;;;;;;;4.60;3.95;;;;;;;5.75;72.11;100322.81;1784910;78;21000;-38
2021/03/29 04:15:35;;;;;;;6.67;5.35;;;;;;;5.77;72.14;100323.83;1816178;78;28331;-38
2021/03/29 04:18:04;;;;;;;5.53;4.53;;;;;;;5.80;72.18;100336.15;1793090;79;21015;-37
2021/03/29 04:20:34;;;;;;;;;;;;;;;5.82;72.13;100334.48;1792626;79;21170;-37
2021/03/29 04:23:02;;;;;;;5.60;3.92;;;;;;;5.87;72.05;100343.81;1813634;78;20157;-38
2021/03/29 04:25:30;;;;;;;5.60;4.42;;;;;;;5.87;72.08;100348.66;1815320;79;21039;-38
2021/03/29 04:27:58;;;;;;;7.00;4.50;;;;;;;5.92;71.98;100351.78;1809013;79;21138;-37
2021/03/29 04:30:27;;;;;;;7.03;4.90;;;;;;;5.93;71.90;100359.56;1766956;80;21110;-38
2021/03/29 04:32:55;;;;;;;5.37;4.72;;;;;;;5.92;71.90;100362.00;1766179;80;21186;-38
2021/03/29 04:35:24;;;;;;;7.12;4.70;;;;;;;5.94;71.87;100365.73;1770433;80;21008;-37
2021/03/29 04:37:53;;;;;;;8.30;4.87;;;;;;;6.00;71.73;100363.19;1748998;82;21060;-37
2021/03/29 04:40:24;;;;;;;7.97;5.20;;;;;;;6.05;71.50;100364.41;1750283;80;21608;-38
2021/03/29 04:42:52;;;;;;;5.70;5.00;;;;;;;6.08;71.42;100367.83;1774729;80;21158;-37
2021/03/29 04:45:21;;;;;;;8.65;5.03;;;;;;;6.05;71.38;100371.14;1761879;80;21205;-38
2021/03/29 04:47:48;;;;;;;6.20;4.67;;;;;;;6.07;71.44;100371.62;1733286;80;21166;-38
2021/03/29 04:50:20;;;;;;;7.37;5.90;;;;;;;6.11;71.37;100377.44;1771451;80;21153;-38
2021/03/29 04:52:49;;;;;;;8.18;5.22;;;;;;;6.18;71.21;100376.22;1722916;81;21174;-37
2021/03/29 04:55:17;;;;;;;8.15;5.62;;;;;;;6.19;71.18;100373.78;1739472;81;21194;-38
2021/03/29 04:57:45;;;;;;;8.15;5.03;;;;;;;6.17;71.14;100374.62;1724687;81;21413;-37
2021/03/29 05:00:15;;;;;;;7.15;5.20;;;;;;;6.19;71.17;100382.66;1722410;82;21214;-37
2021/03/29 05:02:44;;;;;;;7.85;5.53;;;;;;;6.30;71.05;100385.88;1741448;81;21158;-38
2021/03/29 05:05:12;;;;;;;8.25;6.33;;;;;;;6.39;70.80;100387.53;1765556;80;21182;-38
2021/03/29 05:07:40;;;;;;;8.30;5.85;;;;;;;6.38;70.62;100394.59;1743796;81;21175;-37
2021/03/29 05:10:11;;;;;;;10.05;6.90;;;;;;;6.35;70.62;100391.15;1769816;80;21558;-38
2021/03/29 05:12:38;;;;;;;;;;;;;;;6.31;70.84;100391.52;1771119;78;21098;-37
2021/03/29 05:15:08;;;;;;;9.38;6.45;;;;;;;6.32;70.94;100397.16;1759376;81;20270;-38
2021/03/29 05:17:36;;;;;;;8.13;6.47;;;;;;;6.33;70.91;100395.52;1760505;80;21174;-38
2021/03/29 05:20:06;;;;;;;9.28;6.37;;;;;;;6.37;70.75;100393.80;1759816;80;21145;-38
2021/03/29 05:22:34;;;;;;;10.18;6.92;;;;;;;6.37;70.77;100397.84;1764303;80;21320;-37
2021/03/29 05:25:06;;;;;;;12.65;7.37;;;;;;;6.42;70.85;100405.80;1767099;80;21184;-37
2021/03/29 05:27:34;;;;;;;10.48;6.28;;;;;;;6.45;70.57;100404.38;1769829;79;21170;-38
2021/03/29 05:30:05;;;;;;;10.20;6.78;;;;;;;6.51;70.52;100401.81;1753241;81;21150;-38
2021/03/29 05:32:33;;;;;;;8.75;6.92;;;;;;;6.63;70.29;100408.00;1767534;80;21142;-37
2021/03/29 05:35:02;;;;;;;9.48;7.15;;;;;;;6.71;70.14;100416.13;1758559;80;21177;-37
2021/03/29 05:37:31;;;;;;;10.15;7.15;;;;;;;6.75;69.89;100413.61;1756352;81;21954;-38
2021/03/29 05:39:59;;;;;;;10.75;7.40;;;;;;;6.75;69.78;100404.98;1728238;80;20996;-37
2021/03/29 05:42:29;;;;;;;9.90;7.35;;;;;;;6.72;69.81;100411.54;1772320;81;21637;-38
2021/03/29 05:45:07;;;;;;;12.95;7.97;;;;;;;6.70;69.79;100410.49;1766220;81;21178;-37
2021/03/29 05:47:37;;;;;;;9.73;7.47;;;;;;;6.72;69.84;100415.03;1753829;80;21429;-37
2021/03/29 05:50:12;;;;;;;9.68;7.28;;;;;;;6.71;69.94;100418.03;1765792;80;21025;-38
2021/03/29 05:52:40;;;;;;;11.93;8.50;;;;;;;6.69;69.99;100419.67;1783474;80;21162;-38
2021/03/29 05:55:13;;;;;;;10.48;7.53;;;;;;;6.71;70.00;100408.59;1756489;81;21135;-37
2021/03/29 05:58:08;;;;;;;11.25;8.35;;;;;;;6.67;70.02;100417.86;1756496;81;21156;-38
2021/03/29 06:00:38;;;;;;;14.10;8.70;;;;;;;6.68;70.06;100417.31;1751485;80;21218;-38
2021/03/29 06:03:39;;;;;;;11.90;7.62;;;;;;;6.65;70.18;100418.70;1734890;81;21166;-38
2021/03/29 06:06:18;;;;;;;12.73;8.90;;;;;;;6.68;70.28;100434.82;1718400;81;21514;-39
2021/03/29 06:08:50;;;;;;;10.03;8.10;;;;;;;6.71;70.17;100436.34;1748606;79;21009;-39
2021/03/29 06:11:31;;;;;;;10.88;8.45;;;;;;;6.77;70.13;100441.86;1769501;80;22174;-39
2021/03/29 06:14:20;;;;;;;10.63;8.28;;;;;;;6.84;69.87;100445.45;1787831;79;21214;-39
2021/03/29 06:17:09;;;;;;;12.35;9.23;;;;;;;6.87;69.69;100447.55;1785915;79;21116;-39
2021/03/29 06:19:45;;;;;;;11.63;9.38;;;;;;;6.82;69.80;100458.45;1806102;79;21158;-39
2021/03/29 06:22:40;;;;;;;12.70;9.05;;;;;;;6.81;69.90;100456.86;1775284;79;21620;-39
2021/03/29 06:25:22;;;;;;;12.53;9.60;;;;;;;6.78;69.91;100461.50;1794153;79;22161;-38
2021/03/29 06:27:57;;;;;;;11.78;8.88;;;;;;;6.76;70.17;100462.37;1796071;79;21327;-39
2021/03/29 06:30:33;;;;;;;14.13;9.35;;;;;;;6.79;70.12;100466.59;1795518;79;21164;-39
2021/03/29 06:33:17;;;;;;;15.68;10.80;;;;;;;6.84;70.02;100464.31;1774328;79;22108;-39
2021/03/29 06:35:54;;;;;;;13.70;9.60;;;;;;;6.88;69.97;100465.29;1775633;80;21151;-39
2021/03/29 06:38:33;;;;;;;13.22;9.80;;;;;;;6.90;69.80;100465.23;1786299;79;21586;-41
2021/03/29 06:41:04;;;;;;;17.10;11.25;;;;;;;6.99;69.71;100462.05;1794544;78;21187;-41
2021/03/29 06:43:39;;;;;;;16.50;10.15;;;;;;;7.08;69.50;100466.68;1782300;78;21152;-39
2021/03/29 06:46:21;;;;;;;13.85;10.58;;;;;;;7.09;69.55;100469.08;1764690;81;21210;-38
2021/03/29 06:48:51;;;;;;;15.50;10.60;;;;;;;7.13;69.45;100472.73;1783177;79;21562;-38
2021/03/29 06:51:32;;;;;;;17.05;11.40;;;;;;;7.16;69.31;100476.19;1756733;80;21570;-38
2021/03/29 06:54:08;;;;;;;16.52;10.78;;;;;;;7.18;69.23;100478.00;1752524;80;21207;-38
2021/03/29 06:56:39;;;;;;;18.42;11.10;;;;;;;7.27;69.22;100475.34;1754240;80;21206;-38
2021/03/29 06:59:22;;;;;;;22.22;13.10;;;;;;;7.39;68.99;100476.38;1716856;81;21401;-38
2021/03/29 07:01:51;;;;;;;17.75;11.53;;;;;;;7.49;68.63;100473.95;1770210;79;21349;-39
2021/03/29 07:04:23;;;;;;;;;;;;;;;7.54;68.34;100478.41;1767764;79;21158;-38
2021/03/29 07:06:52;;;;;;;19.02;11.68;;;;;;;7.52;68.28;100483.31;1734686;81;21382;-39
2021/03/29 07:09:21;;;;;;;14.28;10.18;;;;;;;7.43;68.55;100484.08;1725660;82;21198;-38
2021/03/29 07:11:50;;;;;;;21.87;12.43;;;;;;;7.47;68.46;100485.59;1793743;79;21196;-38
2021/03/29 07:14:19;;;;;;;21.75;12.58;;;;;;;7.60;68.34;100492.02;1786299;79;21154;-38
2021/03/29 07:16:49;;;;;;;16.97;11.15;;;;;;;7.68;68.22;100493.95;1783030;79;21004;-38
2021/03/29 07:19:17;;;;;;;19.02;11.97;;;;;;;7.73;68.08;100496.50;1770315;79;21941;-38
2021/03/29 07:21:45;;;;;;;22.50;13.58;;;;;;;7.76;67.96;100494.52;1761693;81;21370;-39
2021/03/29 07:24:15;;;;;;;16.97;11.40;;;;;;;7.77;68.04;100496.12;1727803;82;21052;-39
2021/03/29 07:26:49;;;;;;;16.10;11.25;;;;;;;7.87;68.00;100502.58;1739168;81;21593;-39
2021/03/29 07:29:32;;;;;;;18.50;11.95;;;;;;;8.00;67.52;100502.20;1692389;82;21191;-39
2021/03/29 07:32:03;;;;;;;14.33;10.85;;;;;;;8.09;67.34;100506.52;1704711;83;21501;-39
2021/03/29 07:34:48;;;;;;;16.17;11.48;;;;;;;8.17;66.88;100507.11;1731659;82;21171;-39
2021/03/29 07:37:35;;;;;;;16.23;11.70;;;;;;;8.19;66.55;100512.18;1718490;82;21168;-39
2021/03/29 07:40:07;;;;;;;14.58;11.43;;;;;;;8.15;66.55;100513.92;1706858;82;21557;-39
2021/03/29 07:42:37;;;;;;;18.80;12.50;;;;;;;8.11;66.56;100517.81;1761019;81;21583;-39
2021/03/29 07:45:20;;;;;;;15.00;10.68;;;;;;;8.10;66.82;100514.87;1703941;82;21452;-39
2021/03/29 07:47:53;;;;;;;15.60;10.50;;;;;;;8.16;66.92;100524.42;1737838;81;21137;-39
2021/03/29 07:50:30;;;;;;;20.23;14.07;;;;;;;8.22;66.82;100525.08;1752390;81;20954;-40
2021/03/29 07:53:16;;;;;;;25.12;15.60;;;;;;;8.24;66.74;100526.33;1754366;81;21570;-39
2021/03/29 07:55:49;;;;;;;29.87;17.95;;;;;;;8.29;66.70;100531.62;1746521;81;21206;-39
2021/03/29 07:58:22;;;;;;;25.23;16.27;;;;;;;8.31;66.28;100533.22;1750569;80;21194;-40
2021/03/29 08:01:04;;;;;;;22.35;13.98;;;;;;;8.27;66.45;100540.58;1746766;81;21563;-40
2021/03/29 08:03:35;;;;;;;21.27;15.20;;;;;;;8.31;66.42;100537.27;1747730;80;21589;-39
2021/03/29 08:06:06;;;;;;;20.45;14.90;;;;;;;8.35;66.37;100541.73;1769269;80;21107;-39
2021/03/29 08:08:40;;;;;;;21.68;13.90;;;;;;;8.38;66.19;100546.48;1737223;82;21158;-39
2021/03/29 08:11:17;;;;;;;22.17;15.13;;;;;;;8.43;66.10;100555.00;1711810;83;21221;-39
2021/03/29 08:13:56;;;;;;;23.95;16.57;;;;;;;8.47;65.95;100547.88;1774576;79;21162;-39
2021/03/29 08:16:29;;;;;;;29.87;17.67;;;;;;;8.52;65.99;100552.55;1723881;82;21692;-39
2021/03/29 08:19:17;;;;;;;24.23;16.37;;;;;;;8.55;65.75;100555.19;1770271;80;21218;-41
2021/03/29 08:22:17;;;;;;;23.70;16.60;;;;;;;8.55;65.68;100554.64;1751325;80;21534;-40
2021/03/29 08:24:47;;;;;;;26.70;17.20;;;;;;;8.61;65.69;100549.88;1729157;82;21414;-40
2021/03/29 08:27:22;;;;;;;35.63;23.50;;;;;;;8.63;65.36;100553.84;1773962;80;21182;-40
2021/03/29 08:29:53;;;;;;;34.18;22.48;;;;;;;8.73;64.96;100554.08;1745443;82;21519;-40
2021/03/29 08:32:31;;;;;;;31.82;22.35;;;;;;;8.72;64.82;100559.24;1712245;83;21060;-40
2021/03/29 08:35:06;;;;;;;;;;;;;;;8.70;64.84;100556.88;1773564;80;21217;-40
2021/03/29 08:37:40;;;;;;;33.60;22.45;;;;;;;8.65;65.07;100559.73;1775720;80;22026;-41
2021/03/29 08:40:23;;;;;;;29.95;20.75;;;;;;;8.61;65.33;100557.98;1774109;80;21016;-40
2021/03/29 08:43:00;;;;;;;30.45;21.55;;;;;;;8.68;65.19;100562.34;1778800;79;21822;-40
2021/03/29 08:45:30;;;;;;;30.05;20.57;;;;;;;8.73;64.92;100562.99;1771839;80;21629;-40
2021/03/29 08:48:00;;;;;;;27.17;17.15;;;;;;;8.77;64.99;100565.05;1759366;80;21130;-40
2021/03/29 08:50:39;;;;;;;32.65;21.00;;;;;;;8.75;64.94;100568.09;1766126;80;22428;-40
2021/03/29 08:53:10;;;;;;;31.57;19.92;;;;;;;8.77;64.70;100567.75;1721542;82;21467;-40
2021/03/29 08:55:41;;;;;;;29.55;20.05;;;;;;;8.75;64.60;100568.09;1776800;79;21048;-40
2021/03/29 08:58:10;;;;;;;30.05;20.65;;;;;;;8.77;64.56;100576.66;1750740;80;21131;-40
2021/03/29 09:00:43;;;;;;;22.50;14.18;;;;;;;8.79;64.49;100574.45;1759342;80;21202;-40
2021/03/29 09:03:18;;;;;;;28.55;20.72;;;;;;;8.82;64.53;100575.16;1773166;80;21388;-40
2021/03/29 09:05:48;;;;;;;29.92;19.37;;;;;;;8.87;64.42;100568.79;1731072;82;21164;-40
2021/03/29 09:08:16;;;;;;;28.75;19.45;;;;;;;8.88;64.36;100577.95;1731281;82;21900;-40
2021/03/29 09:10:45;;;;;;;29.70;19.65;;;;;;;8.92;64.47;100583.51;1701983;84;21167;-40
2021/03/29 09:13:15;;;;;;;31.12;21.50;;;;;;;8.96;64.20;100579.84;1705250;84;21195;-40
2021/03/29 09:15:49;;;;;;;31.37;21.17;;;;;;;8.98;63.95;100581.69;1773636;80;26724;-40
2021/03/29 09:18:19;;;;;;;26.93;18.77;;;;;;;9.00;63.75;100587.59;1765475;80;21147;-40
2021/03/29 09:20:50;;;;;;;28.15;20.15;;;;;;;9.03;63.73;100586.94;1760318;81;21489;-40
2021/03/29 09:23:21;;;;;;;28.47;21.07;;;;;;;9.09;63.85;100595.14;1741706;81;21670;-40
2021/03/29 09:25:51;;;;;;;30.05;19.82;;;;;;;9.11;63.63;100595.59;1765367;81;21207;-40
2021/03/29 09:28:44;;;;;;;29.20;19.62;;;;;;;9.10;63.69;100597.29;1765839;81;21206;-40
2021/03/29 09:31:23;;;;;;;30.40;21.00;;;;;;;9.14;63.70;100599.59;1761884;81;21230;-41
2021/03/29 09:33:52;;;;;;;27.65;18.45;;;;;;;9.20;63.83;100605.64;1751847;80;21186;-38
2021/03/29 09:36:22;;;;;;;28.75;19.85;;;;;;;9.26;63.86;100601.62;1740341;81;21183;-38
2021/03/29 09:38:55;;;;;;;27.98;18.45;;;;;;;9.39;63.83;100598.73;1764025;80;21195;-38
2021/03/29 09:41:28;;;;;;;22.75;16.80;;;;;;;9.53;63.45;100604.80;1767082;80;21488;-38
2021/03/29 09:43:58;;;;;;;24.80;17.52;;;;;;;9.63;62.71;100610.42;1768639;81;21147;-40
2021/03/29 09:46:27;;;;;;;23.10;17.02;;;;;;;9.67;62.24;100608.66;1763819;80;21683;-40
2021/03/29 09:49:11;;;;;;;23.87;16.17;;;;;;;9.67;62.31;100614.08;1752435;81;20961;-39
2021/03/29 09:51:39;;;;;;;29.40;18.45;;;;;;;9.71;62.45;100612.30;1760542;81;21150;-38
2021/03/29 09:54:28;;;;;;;27.42;19.07;;;;;;;9.79;62.23;100615.54;1762105;81;21200;-38
2021/03/29 09:56:58;;;;;;;28.62;18.67;;;;;;;9.77;61.88;100616.44;1757492;79;21478;-38
2021/03/29 09:59:27;;;;;;;;;;;;;;;9.66;62.15;100609.77;1762810;81;21167;-40
2021/03/29 10:01:56;;;;;;;23.27;17.60;;;;;;;9.70;61.99;100623.45;1734036;81;20265;-38
2021/03/29 10:04:24;;;;;;;25.68;17.92;;;;;;;9.56;62.27;100619.03;1704917;82;21195;-38
2021/03/29 10:06:57;;;;;;;23.20;18.48;;;;;;;9.54;62.42;100625.86;1731558;82;21390;-38
2021/03/29 10:09:34;;;;;;;23.12;17.57;;;;;;;9.52;62.33;100634.33;1702945;83;21211;-38
2021/03/29 10:12:05;;;;;;;22.70;16.42;;;;;;;9.50;62.37;100633.05;1736789;82;21660;-38
2021/03/29 10:14:39;;;;;;;28.50;19.85;;;;;;;9.49;62.60;100632.80;1739499;81;21771;-38
2021/03/29 10:17:19;;;;;;;32.17;21.57;;;;;;;9.48;62.53;100633.38;1731172;82;21132;-39
2021/03/29 10:19:49;;;;;;;;;;;;;;;9.43;62.75;100634.11;1724194;82;22150;-39
2021/03/29 10:22:18;;;;;;;28.20;19.50;;;;;;;9.42;62.55;100641.42;1698635;84;20314;-39
2021/03/29 10:27:50;;;;;;;24.10;18.75;;;;;;;9.38;63.02;100645.09;1840880;76;22796;-39
2021/03/29 10:30:26;;;;;;;27.25;20.12;;;;;;;9.35;63.22;100647.86;1803732;79;21027;-40
2021/03/29 10:32:58;;;;;;;28.12;21.12;;;;;;;9.37;63.24;100642.14;1815909;78;21042;-40
2021/03/29 10:35:29;;;;;;;27.40;20.62;;;;;;;9.50;62.80;100649.28;1815859;79;21326;-39
2021/03/29 10:37:57;;;;;;;27.30;20.62;;;;;;;9.57;62.57;100648.25;1785738;78;21439;-39
2021/03/29 10:40:27;;;;;;;30.75;23.12;;;;;;;9.58;62.23;100646.56;1792743;79;21043;-39
2021/03/29 10:42:56;;;;;;;27.67;21.35;;;;;;;9.54;62.26;100649.67;1784363;79;21027;-39
2021/03/29 10:45:24;;;;;;;29.48;21.87;;;;;;;9.51;62.36;100653.03;1784228;79;21357;-39
2021/03/29 10:47:52;;;;;;;32.30;21.80;;;;;;;9.55;62.55;100650.47;1783719;79;21047;-39
2021/03/29 10:50:21;;;;;;;33.00;23.30;;;;;;;9.56;62.20;100648.01;1785120;79;21155;-39
2021/03/29 10:52:49;;;;;;;31.17;23.15;;;;;;;9.55;62.09;100649.12;1783863;80;21193;-39
2021/03/29 10:55:20;;;;;;;29.65;22.52;;;;;;;9.46;62.25;100656.46;1813993;79;22260;-41
2021/03/29 10:57:47;;;;;;;29.72;21.93;;;;;;;9.36;62.54;100656.23;1805147;79;22175;-39
2021/03/29 11:00:18;;;;;;;30.55;22.00;;;;;;;9.29;62.77;100660.55;1797153;79;20988;-39
2021/03/29 11:02:46;;;;;;;;;;;;;;;9.27;62.97;100660.05;1798960;79;21190;-39
2021/03/29 11:05:16;;;;;;;30.83;21.37;;;;;;;9.26;63.08;100665.22;1788255;79;20273;-39
2021/03/29 11:07:43;;;;;;;29.80;22.22;;;;;;;9.13;63.41;100671.84;1785284;79;21162;-39
2021/03/29 11:10:13;;;;;;;31.07;22.50;;;;;;;9.13;63.55;100671.04;1801397;79;21417;-39
2021/03/29 11:12:42;;;;;;;31.20;22.05;;;;;;;8.78;63.59;100622.08;1801226;79;21154;-39
2021/03/29 11:15:12;;;;;;;27.98;20.88;;;;;;;9.07;63.64;100671.75;1783539;79;21051;-40
2021/03/29 11:17:42;;;;;;;26.48;19.73;;;;;;;9.08;63.79;100667.94;1804730;79;21074;-39
2021/03/29 11:20:11;;;;;;;29.57;21.55;;;;;;;9.06;63.54;100657.17;1780933;79;21180;-39
2021/03/29 11:22:39;;;;;;;29.37;21.45;;;;;;;9.09;63.71;100668.18;1783698;80;21371;-39
2021/03/29 11:25:09;;;;;;;27.60;21.42;;;;;;;9.09;63.79;100671.44;1784810;79;21168;-39
2021/03/29 11:27:36;;;;;;;23.07;17.62;;;;;;;9.09;63.91;100670.09;1810352;78;21177;-40
2021/03/29 11:30:09;;;;;;;30.55;21.90;;;;;;;9.06;63.83;100666.09;1795434;79;21133;-40
2021/03/29 11:32:37;;;;;;;28.77;21.10;;;;;;;8.62;64.08;100605.50;1823589;78;21134;-39
2021/03/29 11:35:07;;;;;;;29.80;21.02;;;;;;;9.03;64.22;100667.29;1826777;78;21388;-40
2021/03/29 11:37:35;;;;;;;29.10;21.42;;;;;;;9.08;64.13;100669.29;1802397;78;21184;-39
2021/03/29 11:40:05;;;;;;;26.05;19.90;;;;;;;9.11;63.96;100674.61;1806263;78;21684;-40
2021/03/29 11:42:33;;;;;;;29.48;21.02;;;;;;;9.11;63.67;100679.47;1808971;78;21200;-40
2021/03/29 11:45:01;;;;;;;28.90;21.17;;;;;;;9.11;63.67;100679.47;1807923;78;21444;-40
2021/03/29 11:47:29;;;;;;;29.48;20.72;;;;;;;9.08;63.96;100680.11;1794893;79;21452;-40
2021/03/29 11:49:58;;;;;;;30.90;21.73;;;;;;;9.09;63.92;100681.70;1826644;78;21233;-40
2021/03/29 11:52:26;;;;;;;29.35;22.30;;;;;;;9.06;63.66;100680.17;1815666;78;21157;-40
2021/03/29 11:54:55;;;;;;;25.85;20.60;;;;;;;9.00;63.69;100683.61;1795474;78;21698;-40
2021/03/29 11:57:23;;;;;;;26.10;19.15;;;;;;;8.98;63.75;100677.70;1802657;78;21600;-40